CYMU

Umiujaq Airport

Umiujaq, Quebec, Canada
METAR CYMU 221900Z 09007KT 020V120 15SM FEW083 27/07 A3016 RMK AC1 SLP218 DENSITY ALT 1400FT
Observed Flight Rules
Jul-22 @ 19:00 UTC (an hour ago) Visual Flight Rules
Wind Visibility Clouds
90° at 7 knots 15 miles
  • Few at 8,300' AGL
Temperatures Readings
Current 27°C / 81°F
Dewpoint 7°C / 45°F
Humidity 28%
Altimeter 30.16" Hg
Pressure 1021.8 hPa
Elevation 71
METAR CYMU 221900Z 09007KT 020V120 15SM FEW083 27/07 A3016 RMK AC1 SLP218 DENSITY ALT 1400FT
Observed Flight Rules
Jul-22 @ 19:00 UTC
(an hour ago)
VFR
Wind Visibility
90° at 7 knots 15 miles
Clouds
  • Few at 8,300' AGL
Temperature Dewpoint
27°C / 81°F 7°C / 45°F
Humidity Altimeter Pressure
28% 30.16" Hg 1021.8 hPa